Time;durP1;ratioP1;P1;durP2;ratioP2;P2;SDS_P1;SDS_P2;PMS_P1;PMS_P2;Temp;Humidity;BMP_temperature;BMP_pressure;BME280_temperature;BME280_humidity;BME280_pressure;Samples;Min_cycle;Max_cycle;Signal;HPM_P1;HPM_P2
2023/06/05 00:00:07;;;;;;;;;;;18.30;99.90;18.40;99430.00;;;;338708;28;95683;-89
2023/06/05 00:00:19;;;;;;;;;;;18.40;99.90;18.50;99428.00;;;;339253;28;83427;-88
2023/06/05 00:00:31;;;;;;;;;;;18.30;99.90;18.40;99434.00;;;;338543;28;96688;-89
2023/06/05 00:00:43;;;;;;;;;;;18.40;99.90;18.40;99432.00;;;;342173;28;82489;-89
2023/06/05 00:00:55;;;;;;;;;;;18.30;99.90;18.40;99429.00;;;;339926;28;97409;-89
2023/06/05 00:01:07;;;;;;;;;;;18.30;99.90;18.40;99435.00;;;;339395;28;82500;-88
2023/06/05 00:01:19;;;;;;;;;;;18.30;99.90;18.40;99435.00;;;;339806;28;96710;-89
2023/06/05 00:01:34;;;;;;;;;;;18.30;99.90;18.40;99440.00;;;;342126;28;83491;-88
2023/06/05 00:01:45;;;;;;;;;;;18.30;99.90;18.50;99434.00;;;;338597;28;96490;-88
2023/06/05 00:01:57;;;;;;;;;;;18.30;99.90;18.50;99434.00;;;;340608;28;83476;-89
2023/06/05 00:02:09;;;;;;;;;;;18.30;99.90;18.50;99436.00;;;;341294;28;95223;-89
2023/06/05 00:02:22;;;;;;;;;;;18.30;99.90;18.40;99434.00;;;;340423;28;83482;-89
2023/06/05 00:02:34;;;;;;;;;;;18.30;99.90;18.40;99439.00;;;;334471;29;96832;-89
2023/06/05 00:02:47;;;;;;;;;;;18.30;99.90;18.40;99429.00;;;;334009;29;82482;-88
2023/06/05 00:02:59;;;;;;;;;;;18.30;99.90;18.40;99437.00;;;;338518;28;97174;-89
2023/06/05 00:03:11;;;;;;;;;;;18.30;99.90;18.40;99436.00;;;;340682;28;83436;-88
2023/06/05 00:03:26;;;;;;;;;;;18.30;99.90;18.40;99435.00;;;;339926;28;93899;-88
2023/06/05 00:03:39;;;;;;;;;;;18.30;99.90;18.40;99436.00;;;;342098;28;82467;-89
2023/06/05 00:03:53;;;;;;;;;;;18.30;99.90;18.30;99432.00;;;;341147;28;96711;-89
2023/06/05 00:04:05;;;;;;;;;;;18.30;99.90;18.20;99442.00;;;;343320;28;83475;-89
2023/06/05 00:04:17;;;;;;;;;;;18.30;99.90;18.20;99437.00;;;;341377;28;94311;-88
2023/06/05 00:04:29;;;;;;;;;;;18.30;99.90;18.30;99433.00;;;;339345;28;83476;-89
2023/06/05 00:04:43;;;;;;;;;;;18.30;99.90;18.40;99441.00;;;;339739;28;97109;-89
2023/06/05 00:04:55;;;;;;;;;;;18.30;99.90;18.30;99431.00;;;;341730;28;82651;-88
2023/06/05 00:05:08;;;;;;;;;;;18.30;99.90;18.30;99437.00;;;;339740;28;97550;-88
2023/06/05 00:05:21;;;;;;;;;;;18.30;99.90;18.40;99435.00;;;;337987;28;83505;-89
2023/06/05 00:05:32;;;;;;;;;;;18.30;99.90;18.30;99436.00;;;;341253;28;96584;-89
2023/06/05 00:05:45;;;;;;;;;;;18.30;99.90;18.30;99432.00;;;;342027;28;83333;-88
2023/06/05 00:05:57;;;;;;;;;;;18.30;99.90;18.30;99433.00;;;;337245;28;96466;-89
2023/06/05 00:06:09;;;;;;;;;;;18.30;99.90;18.30;99430.00;;;;342080;28;82471;-88
2023/06/05 00:06:21;;;;;;;;;;;18.30;99.90;18.30;99431.00;;;;341238;28;95412;-89
2023/06/05 00:06:33;;;;;;;;;;;18.30;99.90;18.40;99435.00;;;;339411;28;83502;-88
2023/06/05 00:06:45;;;;;;;;;;;18.30;99.90;18.40;99428.00;;;;341241;28;97491;-89
2023/06/05 00:06:57;;;;;;;;;;;18.30;99.90;18.50;99430.00;;;;341959;28;82557;-88
2023/06/05 00:07:09;;;;;;;;;;;18.30;99.90;18.60;99436.00;;;;339852;28;94700;-89
2023/06/05 00:07:21;;;;;;;;;;;18.30;99.90;18.40;99424.00;;;;339398;28;83275;-89
2023/06/05 00:07:32;;;;;;;;;;;18.30;99.90;18.20;99435.00;;;;339907;28;96791;-88
2023/06/05 00:07:44;;;;;;;;;;;18.30;99.90;18.20;99433.00;;;;342118;28;82397;-88
2023/06/05 00:07:56;;;;;;;;;;;18.30;99.90;18.30;99433.00;;;;342535;28;95586;-89
2023/06/05 00:08:08;;;;;;;;;;;18.30;99.90;18.40;99432.00;;;;340645;28;82588;-89
2023/06/05 00:08:20;;;;;;;;;;;18.30;99.90;18.40;99432.00;;;;337309;28;95249;-89
2023/06/05 00:08:32;;;;;;;;;;;18.30;99.90;18.40;99430.00;;;;342140;28;82653;-88
2023/06/05 00:08:44;;;;;;;;;;;18.30;99.90;18.40;99429.00;;;;341400;28;93046;-88
2023/06/05 00:08:56;;;;;;;;;;;18.30;99.90;18.40;99431.00;;;;341948;28;83454;-88
2023/06/05 00:09:08;;;;;;;;;;;18.30;99.90;18.20;99437.00;;;;341098;28;96764;-89
2023/06/05 00:09:20;;;;;;;;;;;18.30;99.90;18.20;99436.00;;;;340706;28;83250;-88
2023/06/05 00:09:31;;;;;;;;;;;18.30;99.90;18.20;99434.00;;;;339818;28;95419;-88
2023/06/05 00:09:43;;;;;;;;;;;18.30;99.90;18.10;99428.00;;;;343284;28;83376;-89
2023/06/05 00:09:55;;;;;;;;;;;18.20;99.90;18.00;99435.00;;;;341248;28;95231;-89
2023/06/05 00:10:07;;;;;;;;;;;18.20;99.90;18.00;99435.00;;;;337953;28;82344;-88
2023/06/05 00:10:19;;;;;;;;;;;18.20;99.90;18.00;99435.00;;;;340076;28;92797;-88
2023/06/05 00:10:31;;;;;;;;;;;18.20;99.90;18.10;99434.00;;;;343328;28;82488;-88
2023/06/05 00:10:43;;;;;;;;;;;18.20;99.90;18.00;99437.00;;;;338741;28;94916;-89
2023/06/05 00:10:55;;;;;;;;;;;18.20;99.90;18.00;99429.00;;;;340767;28;82389;-89
2023/06/05 00:11:07;;;;;;;;;;;18.20;99.90;17.90;99439.00;;;;339865;28;94848;-89
2023/06/05 00:11:19;;;;;;;;;;;18.20;99.90;17.80;99440.00;;;;340626;28;83315;-89
2023/06/05 00:11:31;;;;;;;;;;;18.20;99.90;17.90;99425.00;;;;339942;28;96922;-89
2023/06/05 00:11:43;;;;;;;;;;;18.10;99.90;17.90;99442.00;;;;342034;28;83367;-89
2023/06/05 00:11:55;;;;;;;;;;;18.10;99.90;17.80;99438.00;;;;341246;28;95403;-89
2023/06/05 00:12:07;;;;;;;;;;;18.10;99.90;17.90;99437.00;;;;340686;28;82552;-88
2023/06/05 00:12:19;;;;;;;;;;;18.10;99.90;18.10;99443.00;;;;337181;28;96895;-89
2023/06/05 00:12:31;;;;;;;;;;;18.10;99.90;18.20;99438.00;;;;341910;28;83675;-88
2023/06/05 00:12:44;;;;;;;;;;;18.10;99.90;18.20;99430.00;;;;341277;28;96825;-89
2023/06/05 00:12:55;;;;;;;;;;;18.10;99.90;18.30;99442.00;;;;340669;28;83432;-89
2023/06/05 00:13:07;;;;;;;;;;;18.10;99.90;18.30;99433.00;;;;339806;28;94986;-88
2023/06/05 00:13:19;;;;;;;;;;;18.10;99.90;18.20;99439.00;;;;342012;28;83344;-88
2023/06/05 00:13:31;;;;;;;;;;;18.10;99.90;18.30;99434.00;;;;341172;28;95622;-88
2023/06/05 00:13:42;;;;;;;;;;;18.10;99.90;18.30;99431.00;;;;340630;28;82510;-89
2023/06/05 00:13:54;;;;;;;;;;;18.10;99.90;18.30;99432.00;;;;338523;28;95202;-88
2023/06/05 00:14:08;;;;;;;;;;;18.10;99.90;18.30;99443.00;;;;342032;28;82541;-89
2023/06/05 00:14:20;;;;;;;;;;;18.10;99.90;18.30;99434.00;;;;341135;28;97077;-89
2023/06/05 00:14:32;;;;;;;;;;;18.20;99.90;18.20;99437.00;;;;342015;28;83090;-88
2023/06/05 00:14:44;;;;;;;;;;;18.10;99.90;18.10;99433.00;;;;339806;28;97012;-88
2023/06/05 00:14:56;;;;;;;;;;;18.10;99.90;18.00;99426.00;;;;339286;28;82528;-88
2023/06/05 00:15:08;;;;;;;;;;;18.10;99.90;17.90;99430.00;;;;339598;28;97536;-89
2023/06/05 00:15:19;;;;;;;;;;;18.10;99.90;18.00;99426.00;;;;340714;28;83334;-88
2023/06/05 00:15:35;;;;;;;;;;;18.10;99.90;18.20;99431.00;;;;341270;28;94895;-88
2023/06/05 00:15:47;;;;;;;;;;;18.10;99.90;18.10;99426.00;;;;341899;28;83444;-88
2023/06/05 00:16:02;;;;;;;;;;;18.10;99.90;18.10;99428.00;;;;338771;28;93079;-89
2023/06/05 00:16:17;;;;;;;;;;;18.10;99.90;18.10;99432.00;;;;340746;28;83373;-89
2023/06/05 00:16:29;;;;;;;;;;;18.10;99.90;18.00;99426.00;;;;338393;28;95652;-88
2023/06/05 00:16:41;;;;;;;;;;;18.10;99.90;18.00;99426.00;;;;343431;28;83398;-88
2023/06/05 00:16:53;;;;;;;;;;;18.10;99.90;18.00;99420.00;;;;341246;28;97292;-89
2023/06/05 00:17:07;;;;;;;;;;;18.10;99.90;18.10;99428.00;;;;338060;28;83358;-88
2023/06/05 00:17:19;;;;;;;;;;;18.10;99.90;18.10;99419.00;;;;339947;28;97245;-89
2023/06/05 00:17:31;;;;;;;;;;;18.10;99.90;18.10;99428.00;;;;342014;28;82658;-89
2023/06/05 00:17:44;;;;;;;;;;;18.10;99.90;18.20;99428.00;;;;342558;28;95962;-88
2023/06/05 00:17:56;;;;;;;;;;;18.10;99.90;18.20;99422.00;;;;340651;28;83414;-89
2023/06/05 00:18:08;;;;;;;;;;;18.10;99.90;18.20;99423.00;;;;339704;28;96233;-88
2023/06/05 00:18:20;;;;;;;;;;;18.10;99.90;18.10;99417.00;;;;339434;28;83362;-88
2023/06/05 00:18:32;;;;;;;;;;;18.10;99.90;18.10;99420.00;;;;338533;28;96552;-88
2023/06/05 00:18:45;;;;;;;;;;;18.10;99.90;18.20;99420.00;;;;342079;28;83353;-89
2023/06/05 00:18:57;;;;;;;;;;;18.10;99.90;18.30;99421.00;;;;341339;28;96589;-89
2023/06/05 00:19:09;;;;;;;;;;;18.10;99.90;18.40;99425.00;;;;340746;28;83961;-89
2023/06/05 00:19:21;;;;;;;;;;;18.10;99.90;18.20;99425.00;;;;341328;28;95236;-88
2023/06/05 00:19:34;;;;;;;;;;;18.10;99.90;18.10;99422.00;;;;342038;28;82628;-88
2023/06/05 00:19:46;;;;;;;;;;;18.10;99.90;18.10;99426.00;;;;341312;28;97278;-89
2023/06/05 00:20:01;;;;;;;;;;;18.10;99.90;18.10;99428.00;;;;340919;28;83382;-89
2023/06/05 00:20:13;;;;;;;;;;;18.10;99.90;18.00;99428.00;;;;338935;28;95889;-88
2023/06/05 00:20:25;;;;;;;;;;;18.10;99.90;18.10;99422.00;;;;335359;29;83505;-88
2023/06/05 00:20:37;;;;;;;;;;;18.10;99.90;18.10;99423.00;;;;340067;28;95111;-89
2023/06/05 00:20:49;;;;;;;;;;;18.10;99.90;18.00;99426.00;;;;334084;29;83379;-88
2023/06/05 00:21:03;;;;;;;;;;;18.10;99.90;18.00;99425.00;;;;337332;28;97129;-88
2023/06/05 00:21:15;;;;;;;;;;;18.10;99.90;18.00;99428.00;;;;337969;28;83509;-88
2023/06/05 00:21:28;;;;;;;;;;;18.10;99.90;18.10;99426.00;;;;338424;28;96836;-88
2023/06/05 00:21:40;;;;;;;;;;;18.10;99.90;18.10;99426.00;;;;339562;28;82310;-89
2023/06/05 00:21:52;;;;;;;;;;;18.10;99.90;18.10;99432.00;;;;339904;28;96578;-88
2023/06/05 00:22:04;;;;;;;;;;;18.10;99.90;18.00;99423.00;;;;340557;28;82482;-89
2023/06/05 00:22:16;;;;;;;;;;;18.10;99.90;18.00;99427.00;;;;339937;28;96310;-88
2023/06/05 00:22:28;;;;;;;;;;;18.10;99.90;18.10;99436.00;;;;342108;28;82522;-89
2023/06/05 00:22:40;;;;;;;;;;;18.10;99.90;18.30;99427.00;;;;337338;28;96553;-88
2023/06/05 00:22:52;;;;;;;;;;;18.10;99.90;18.30;99432.00;;;;338050;28;83535;-88
2023/06/05 00:23:04;;;;;;;;;;;18.10;99.90;18.20;99427.00;;;;338529;28;96446;-89
2023/06/05 00:23:16;;;;;;;;;;;18.10;99.90;18.10;99434.00;;;;340677;28;83455;-89
2023/06/05 00:23:28;;;;;;;;;;;18.10;99.90;18.00;99434.00;;;;339711;28;96767;-88
2023/06/05 00:23:40;;;;;;;;;;;18.10;99.90;17.80;99429.00;;;;338047;28;82516;-88
2023/06/05 00:23:52;;;;;;;;;;;18.10;99.90;17.70;99431.00;;;;341166;28;96509;-88
2023/06/05 00:24:04;;;;;;;;;;;18.10;99.90;17.70;99431.00;;;;340565;28;83400;-88
2023/06/05 00:24:16;;;;;;;;;;;18.00;99.90;17.70;99432.00;;;;338470;28;96727;-89
2023/06/05 00:24:27;;;;;;;;;;;18.00;99.90;17.70;99436.00;;;;341957;28;82563;-88
2023/06/05 00:24:39;;;;;;;;;;;18.00;99.90;17.70;99443.00;;;;339976;28;93083;-89
2023/06/05 00:24:52;;;;;;;;;;;18.00;99.90;17.60;99434.00;;;;340669;28;83410;-88
2023/06/05 00:25:05;;;;;;;;;;;17.90;99.90;17.60;99431.00;;;;338627;28;96637;-88
2023/06/05 00:25:17;;;;;;;;;;;17.90;99.90;17.60;99435.00;;;;339305;28;82404;-89
2023/06/05 00:25:29;;;;;;;;;;;17.90;99.90;17.60;99435.00;;;;338535;28;97166;-88
2023/06/05 00:25:41;;;;;;;;;;;17.90;99.90;17.80;99439.00;;;;343363;28;83472;-88
2023/06/05 00:25:52;;;;;;;;;;;17.90;99.90;17.80;99432.00;;;;341280;28;96504;-89
2023/06/05 00:26:04;;;;;;;;;;;17.90;99.90;17.60;99431.00;;;;340718;28;82487;-88
2023/06/05 00:26:16;;;;;;;;;;;17.90;99.90;17.60;99427.00;;;;341133;28;95843;-88
2023/06/05 00:26:28;;;;;;;;;;;17.90;99.90;17.60;99434.00;;;;340622;28;83503;-89
2023/06/05 00:26:40;;;;;;;;;;;17.90;99.90;17.70;99422.00;;;;339981;28;95479;-88
2023/06/05 00:26:53;;;;;;;;;;;17.90;99.90;17.70;99424.00;;;;340705;28;83359;-89
2023/06/05 00:27:05;;;;;;;;;;;17.90;99.90;17.90;99425.00;;;;338512;28;96982;-88
2023/06/05 00:27:17;;;;;;;;;;;17.80;99.90;17.80;99425.00;;;;340695;28;83323;-88
2023/06/05 00:27:30;;;;;;;;;;;17.80;99.90;17.90;99418.00;;;;338474;28;94804;-89
2023/06/05 00:27:41;;;;;;;;;;;17.90;99.90;17.80;99426.00;;;;337923;28;82522;-89
2023/06/05 00:27:53;;;;;;;;;;;17.80;99.90;17.80;99418.00;;;;339943;28;94100;-89
2023/06/05 00:28:05;;;;;;;;;;;17.80;99.90;17.80;99423.00;;;;341883;28;83551;-88
2023/06/05 00:28:17;;;;;;;;;;;17.80;99.90;17.80;99425.00;;;;337137;28;95511;-88
2023/06/05 00:28:29;;;;;;;;;;;17.80;99.90;17.90;99423.00;;;;335095;29;83537;-89
2023/06/05 00:28:41;;;;;;;;;;;17.80;99.90;17.90;99415.00;;;;335616;28;95861;-89
2023/06/05 00:28:53;;;;;;;;;;;17.80;99.90;18.00;99424.00;;;;340619;28;83536;-88
2023/06/05 00:29:05;;;;;;;;;;;17.80;99.90;18.00;99417.00;;;;338388;28;95335;-88
2023/06/05 00:29:16;;;;;;;;;;;17.80;99.90;17.80;99420.00;;;;336509;28;83396;-88
2023/06/05 00:29:28;;;;;;;;;;;17.80;99.90;17.70;99420.00;;;;335769;28;96870;-89
2023/06/05 00:29:41;;;;;;;;;;;17.80;99.90;17.80;99422.00;;;;340688;28;83309;-88
2023/06/05 00:29:53;;;;;;;;;;;17.80;99.90;18.00;99416.00;;;;339753;28;95698;-88
2023/06/05 00:30:05;;;;;;;;;;;17.80;99.90;18.00;99419.00;;;;341957;28;82430;-89
2023/06/05 00:30:17;;;;;;;;;;;17.80;99.90;17.90;99416.00;;;;341204;28;96749;-88
2023/06/05 00:30:29;;;;;;;;;;;17.80;99.90;17.90;99414.00;;;;341988;28;83455;-89
2023/06/05 00:30:41;;;;;;;;;;;17.80;99.90;18.00;99414.00;;;;339973;28;94294;-89
2023/06/05 00:30:52;;;;;;;;;;;17.80;99.90;18.00;99415.00;;;;340672;28;82473;-89
2023/06/05 00:31:05;;;;;;;;;;;17.80;99.90;17.90;99414.00;;;;339990;28;93042;-88
2023/06/05 00:31:18;;;;;;;;;;;17.80;99.90;17.70;99412.00;;;;340795;28;82473;-88
2023/06/05 00:31:32;;;;;;;;;;;17.80;99.90;17.70;99420.00;;;;338479;28;97939;-88
2023/06/05 00:31:45;;;;;;;;;;;17.80;99.90;17.80;99413.00;;;;340658;28;82425;-88
2023/06/05 00:31:57;;;;;;;;;;;17.80;99.90;17.80;99418.00;;;;339999;28;96474;-89
2023/06/05 00:32:10;;;;;;;;;;;17.80;99.90;17.80;99425.00;;;;339222;28;83246;-88
2023/06/05 00:32:21;;;;;;;;;;;17.80;99.90;17.90;99415.00;;;;338593;28;96745;-88
2023/06/05 00:32:33;;;;;;;;;;;17.80;99.90;17.90;99414.00;;;;339092;28;83528;-89
2023/06/05 00:32:45;;;;;;;;;;;17.80;99.90;17.80;99414.00;;;;341021;28;96617;-89
2023/06/05 00:32:57;;;;;;;;;;;17.80;99.90;17.80;99404.00;;;;342077;28;83333;-89
2023/06/05 00:33:09;;;;;;;;;;;17.80;99.90;17.80;99408.00;;;;339669;28;97964;-87
2023/06/05 00:33:21;;;;;;;;;;;17.80;99.90;17.70;99417.00;;;;335252;28;82576;-89
2023/06/05 00:33:33;;;;;;;;;;;17.80;99.90;17.80;99410.00;;;;338455;28;97536;-88
2023/06/05 00:33:45;;;;;;;;;;;17.80;99.90;18.00;99415.00;;;;337975;28;83372;-89
2023/06/05 00:33:57;;;;;;;;;;;17.80;99.90;18.00;99415.00;;;;341061;28;96667;-89
2023/06/05 00:34:09;;;;;;;;;;;17.80;99.90;18.00;99416.00;;;;340685;28;82462;-88
2023/06/05 00:34:20;;;;;;;;;;;17.80;99.90;17.90;99414.00;;;;341276;28;95665;-89
2023/06/05 00:34:32;;;;;;;;;;;17.80;99.90;17.70;99415.00;;;;341998;28;82574;-88
2023/06/05 00:34:44;;;;;;;;;;;17.80;99.90;17.80;99417.00;;;;338648;28;94257;-89
2023/06/05 00:34:56;;;;;;;;;;;17.80;99.90;18.00;99409.00;;;;337959;28;82509;-89
2023/06/05 00:35:09;;;;;;;;;;;17.80;99.90;18.00;99413.00;;;;342505;28;96737;-88
2023/06/05 00:35:20;;;;;;;;;;;17.80;99.90;17.90;99414.00;;;;339276;28;83371;-88
2023/06/05 00:35:32;;;;;;;;;;;17.80;99.90;18.00;99420.00;;;;339813;28;97878;-88
2023/06/05 00:35:44;;;;;;;;;;;17.80;99.90;17.90;99411.00;;;;343298;28;83416;-89
2023/06/05 00:35:56;;;;;;;;;;;17.80;99.90;17.80;99410.00;;;;339899;28;97176;-88
2023/06/05 00:36:08;;;;;;;;;;;17.80;99.90;17.80;99417.00;;;;340522;28;82588;-89
2023/06/05 00:36:22;;;;;;;;;;;17.80;99.90;17.80;99412.00;;;;341233;28;96636;-88
2023/06/05 00:36:36;;;;;;;;;;;17.80;99.90;17.80;99411.00;;;;340441;28;83494;-89
2023/06/05 00:36:51;;;;;;;;;;;17.80;99.90;17.80;99417.00;;;;341161;28;95742;-89
2023/06/05 00:37:04;;;;;;;;;;;17.80;99.90;17.80;99420.00;;;;341984;28;82460;-88
2023/06/05 00:37:16;;;;;;;;;;;17.80;99.90;17.80;99409.00;;;;341222;28;96193;-88
2023/06/05 00:37:28;;;;;;;;;;;17.80;99.90;17.80;99413.00;;;;343311;28;83372;-89
2023/06/05 00:37:40;;;;;;;;;;;17.80;99.90;17.80;99420.00;;;;339963;28;95374;-88
2023/06/05 00:37:52;;;;;;;;;;;17.80;99.90;17.80;99420.00;;;;341947;28;82301;-89
2023/06/05 00:38:04;;;;;;;;;;;17.80;99.90;17.80;99411.00;;;;341373;28;95447;-88
2023/06/05 00:38:16;;;;;;;;;;;17.80;99.90;17.80;99419.00;;;;339291;28;83408;-89
2023/06/05 00:38:27;;;;;;;;;;;17.80;99.90;17.70;99412.00;;;;342617;28;94243;-89
2023/06/05 00:38:39;;;;;;;;;;;17.80;99.90;17.70;99416.00;;;;342051;28;83388;-89
2023/06/05 00:38:51;;;;;;;;;;;17.80;99.90;17.70;99422.00;;;;338482;28;96073;-89
2023/06/05 00:39:03;;;;;;;;;;;17.80;99.90;17.70;99419.00;;;;339381;28;82511;-88
2023/06/05 00:39:15;;;;;;;;;;;17.70;99.90;17.60;99415.00;;;;341216;28;96354;-89
2023/06/05 00:39:27;;;;;;;;;;;17.70;99.90;17.50;99417.00;;;;341914;28;83191;-89
2023/06/05 00:39:39;;;;;;;;;;;17.70;99.90;17.50;99417.00;;;;342691;28;93679;-89
2023/06/05 00:39:51;;;;;;;;;;;17.70;99.90;17.60;99414.00;;;;343311;28;82535;-88
2023/06/05 00:40:05;;;;;;;;;;;17.70;99.90;17.50;99412.00;;;;343929;28;96451;-88
2023/06/05 00:40:17;;;;;;;;;;;17.70;99.90;17.70;99410.00;;;;341917;28;83442;-89
2023/06/05 00:40:29;;;;;;;;;;;17.70;99.90;17.70;99411.00;;;;339830;28;96326;-88
2023/06/05 00:40:41;;;;;;;;;;;17.70;99.90;17.90;99411.00;;;;340670;28;83314;-89
2023/06/05 00:40:52;;;;;;;;;;;17.70;99.90;17.90;99411.00;;;;342473;28;96656;-88
2023/06/05 00:41:04;;;;;;;;;;;17.70;99.90;17.90;99410.00;;;;339250;28;82498;-88
2023/06/05 00:41:16;;;;;;;;;;;17.70;99.90;17.90;99410.00;;;;339790;28;97128;-88
2023/06/05 00:41:28;;;;;;;;;;;17.70;99.90;18.00;99409.00;;;;339312;28;83338;-89
2023/06/05 00:41:41;;;;;;;;;;;17.70;99.90;18.00;99407.00;;;;341049;28;97720;-88
2023/06/05 00:41:54;;;;;;;;;;;17.70;99.90;18.00;99410.00;;;;342046;28;83424;-89
2023/06/05 00:42:07;;;;;;;;;;;17.70;99.90;17.90;99414.00;;;;339915;28;96269;-89
2023/06/05 00:42:19;;;;;;;;;;;17.70;99.90;17.80;99409.00;;;;344780;28;82478;-89
2023/06/05 00:42:31;;;;;;;;;;;17.70;99.90;17.80;99414.00;;;;339919;28;96645;-89
2023/06/05 00:42:43;;;;;;;;;;;17.70;99.90;17.80;99414.00;;;;342010;28;82459;-88
2023/06/05 00:42:55;;;;;;;;;;;17.70;99.90;17.80;99414.00;;;;342705;28;93072;-88
2023/06/05 00:43:06;;;;;;;;;;;17.70;99.90;17.80;99411.00;;;;344622;28;83439;-87
2023/06/05 00:43:18;;;;;;;;;;;17.70;99.90;17.80;99416.00;;;;341245;28;96162;-88
2023/06/05 00:43:30;;;;;;;;;;;17.70;99.90;17.70;99416.00;;;;339374;28;83332;-89
2023/06/05 00:43:42;;;;;;;;;;;17.70;99.90;17.50;99406.00;;;;339727;28;97435;-88
2023/06/05 00:43:54;;;;;;;;;;;17.70;99.90;17.50;99412.00;;;;341942;28;82574;-89
2023/06/05 00:44:06;;;;;;;;;;;17.70;99.90;17.50;99411.00;;;;341296;28;96592;-88
2023/06/05 00:44:18;;;;;;;;;;;17.70;99.90;17.70;99404.00;;;;342129;28;82484;-88
2023/06/05 00:44:30;;;;;;;;;;;17.70;99.90;17.70;99418.00;;;;342456;28;97501;-89
2023/06/05 00:44:42;;;;;;;;;;;17.70;99.90;17.80;99410.00;;;;339292;28;83474;-88
2023/06/05 00:44:53;;;;;;;;;;;17.70;99.90;17.80;99410.00;;;;338463;28;96079;-88
2023/06/05 00:45:06;;;;;;;;;;;17.70;99.90;17.70;99404.00;;;;342027;28;83360;-88
2023/06/05 00:45:18;;;;;;;;;;;17.70;99.90;17.70;99413.00;;;;342688;28;95572;-88
2023/06/05 00:45:29;;;;;;;;;;;17.70;99.90;17.80;99413.00;;;;340575;28;83410;-89
2023/06/05 00:45:42;;;;;;;;;;;17.70;99.90;17.80;99412.00;;;;341180;28;97530;-88
2023/06/05 00:45:58;;;;;;;;;;;17.70;99.90;18.00;99415.00;;;;341999;28;83384;-89
2023/06/05 00:46:11;;;;;;;;;;;17.70;99.90;18.00;99408.00;;;;339706;28;96966;-89
2023/06/05 00:46:23;;;;;;;;;;;17.70;99.90;17.90;99412.00;;;;343283;28;83875;-88
2023/06/05 00:46:35;;;;;;;;;;;17.70;99.90;17.90;99415.00;;;;339854;28;96323;-89
2023/06/05 00:46:48;;;;;;;;;;;17.70;99.90;17.90;99409.00;;;;342102;28;82360;-89
2023/06/05 00:47:00;;;;;;;;;;;17.70;99.90;17.80;99412.00;;;;342551;28;95554;-88
2023/06/05 00:47:12;;;;;;;;;;;17.70;99.90;17.70;99418.00;;;;343269;28;83435;-89
2023/06/05 00:47:24;;;;;;;;;;;17.70;99.90;17.50;99418.00;;;;334500;29;93133;-88
2023/06/05 00:47:36;;;;;;;;;;;17.70;99.90;17.60;99410.00;;;;343335;28;82580;-88
2023/06/05 00:47:48;;;;;;;;;;;17.70;99.90;17.80;99412.00;;;;342131;28;95820;-88
2023/06/05 00:48:00;;;;;;;;;;;17.70;99.90;17.90;99409.00;;;;339260;28;83555;-88
2023/06/05 00:48:12;;;;;;;;;;;17.70;99.90;18.00;99410.00;;;;338516;28;94401;-88
2023/06/05 00:48:25;;;;;;;;;;;17.70;99.90;17.90;99413.00;;;;340662;28;82437;-88
2023/06/05 00:48:36;;;;;;;;;;;17.70;99.90;17.80;99413.00;;;;341198;28;95713;-88
2023/06/05 00:48:50;;;;;;;;;;;17.70;99.90;17.70;99416.00;;;;341993;28;83359;-89
2023/06/05 00:49:01;;;;;;;;;;;17.70;99.90;17.70;99416.00;;;;339891;28;96766;-89
2023/06/05 00:49:13;;;;;;;;;;;17.70;99.90;17.70;99420.00;;;;340624;28;82514;-91
2023/06/05 00:49:25;;;;;;;;;;;17.70;99.90;17.70;99415.00;;;;343844;28;97293;-88
2023/06/05 00:49:37;;;;;;;;;;;17.70;99.90;17.70;99418.00;;;;342039;28;83349;-88
2023/06/05 00:49:49;;;;;;;;;;;17.70;99.90;17.70;99409.00;;;;339793;28;97521;-91
2023/06/05 00:50:02;;;;;;;;;;;17.70;99.90;17.80;99412.00;;;;342086;28;82506;-89
2023/06/05 00:50:14;;;;;;;;;;;17.70;99.90;17.80;99410.00;;;;338496;28;96606;-88
2023/06/05 00:50:26;;;;;;;;;;;17.70;99.90;17.90;99406.00;;;;341936;28;83346;-89
2023/06/05 00:50:38;;;;;;;;;;;17.70;99.90;17.80;99415.00;;;;339909;28;96415;-88
2023/06/05 00:50:50;;;;;;;;;;;17.70;99.90;17.80;99413.00;;;;341990;28;83414;-88
2023/06/05 00:51:02;;;;;;;;;;;17.70;99.90;17.80;99412.00;;;;339871;28;94955;-88
2023/06/05 00:51:15;;;;;;;;;;;17.70;99.90;17.80;99406.00;;;;340633;28;83394;-89
2023/06/05 00:51:27;;;;;;;;;;;17.70;99.90;17.90;99410.00;;;;339900;28;95051;-88
2023/06/05 00:51:40;;;;;;;;;;;17.70;99.90;18.00;99406.00;;;;340680;28;83392;-89
2023/06/05 00:51:52;;;;;;;;;;;17.70;99.90;17.90;99408.00;;;;339805;28;95247;-89
2023/06/05 00:52:04;;;;;;;;;;;17.70;99.90;17.90;99414.00;;;;339292;28;83304;-88
2023/06/05 00:52:15;;;;;;;;;;;17.70;99.90;17.90;99405.00;;;;341193;28;96892;-88
2023/06/05 00:52:27;;;;;;;;;;;17.70;99.90;17.90;99419.00;;;;340597;28;83362;-88
2023/06/05 00:52:39;;;;;;;;;;;17.70;99.90;17.90;99412.00;;;;340034;28;94138;-89
2023/06/05 00:52:51;;;;;;;;;;;17.70;99.90;17.90;99411.00;;;;342029;28;83478;-88
2023/06/05 00:53:03;;;;;;;;;;;17.70;99.90;17.90;99405.00;;;;341195;28;96576;-88
2023/06/05 00:53:15;;;;;;;;;;;17.70;99.90;17.90;99413.00;;;;344821;28;83280;-88
2023/06/05 00:53:27;;;;;;;;;;;17.70;99.90;17.90;99413.00;;;;341068;28;95853;-89
2023/06/05 00:53:38;;;;;;;;;;;17.70;99.90;17.80;99405.00;;;;342099;28;82463;-88
2023/06/05 00:53:50;;;;;;;;;;;17.70;99.90;17.80;99413.00;;;;343807;28;95070;-88
2023/06/05 00:54:02;;;;;;;;;;;17.70;99.90;17.80;99407.00;;;;342003;28;83429;-88
2023/06/05 00:54:14;;;;;;;;;;;17.70;99.90;17.90;99412.00;;;;339803;28;96283;-88
2023/06/05 00:54:27;;;;;;;;;;;17.70;99.90;18.00;99413.00;;;;343383;28;83429;-89
2023/06/05 00:54:40;;;;;;;;;;;17.70;99.90;18.00;99416.00;;;;339883;28;96576;-88
2023/06/05 00:54:52;;;;;;;;;;;17.70;99.90;17.90;99416.00;;;;340600;28;82504;-89
2023/06/05 00:55:04;;;;;;;;;;;17.70;99.90;17.80;99415.00;;;;341090;28;96468;-88
2023/06/05 00:55:16;;;;;;;;;;;17.70;99.90;17.90;99414.00;;;;341964;28;83578;-88
2023/06/05 00:55:27;;;;;;;;;;;17.70;99.90;18.00;99406.00;;;;341179;28;94233;-88
2023/06/05 00:55:39;;;;;;;;;;;17.70;99.90;18.00;99412.00;;;;341993;28;83429;-89
2023/06/05 00:55:51;;;;;;;;;;;17.80;99.90;18.10;99408.00;;;;338375;28;96823;-88
2023/06/05 00:56:03;;;;;;;;;;;17.80;99.90;18.10;99417.00;;;;341792;28;83439;-88
2023/06/05 00:56:17;;;;;;;;;;;17.80;99.90;18.10;99410.00;;;;339692;28;96284;-88
2023/06/05 00:56:28;;;;;;;;;;;17.80;99.90;18.10;99410.00;;;;337760;28;82524;-88
2023/06/05 00:56:44;;;;;;;;;;;17.80;99.90;17.90;99413.00;;;;339636;28;96986;-89
2023/06/05 00:56:56;;;;;;;;;;;17.80;99.90;17.90;99414.00;;;;343421;28;83319;-88
2023/06/05 00:57:08;;;;;;;;;;;17.80;99.90;17.90;99412.00;;;;338457;28;96325;-88
2023/06/05 00:57:20;;;;;;;;;;;17.80;99.90;17.90;99416.00;;;;342084;28;82403;-89
2023/06/05 00:57:34;;;;;;;;;;;17.80;99.90;17.90;99419.00;;;;343910;28;95084;-89
2023/06/05 00:57:46;;;;;;;;;;;17.80;99.90;17.80;99417.00;;;;342007;28;83432;-88
2023/06/05 00:57:58;;;;;;;;;;;17.80;99.90;17.80;99420.00;;;;339852;28;97319;-88
2023/06/05 00:58:10;;;;;;;;;;;17.80;99.90;17.90;99415.00;;;;344630;28;83438;-88
2023/06/05 00:58:22;;;;;;;;;;;17.80;99.90;17.90;99409.00;;;;339848;28;95564;-88
2023/06/05 00:58:34;;;;;;;;;;;17.80;99.90;18.00;99408.00;;;;344637;28;82574;-88
2023/06/05 00:58:47;;;;;;;;;;;17.80;99.90;17.90;99413.00;;;;342677;28;94433;-89
2023/06/05 00:58:59;;;;;;;;;;;17.80;99.90;17.90;99414.00;;;;340765;28;82478;-89
2023/06/05 00:59:12;;;;;;;;;;;17.80;99.90;18.00;99413.00;;;;341032;28;96463;-89
2023/06/05 00:59:24;;;;;;;;;;;17.80;99.90;17.90;99418.00;;;;343372;28;83380;-88
2023/06/05 00:59:36;;;;;;;;;;;17.80;99.90;17.90;99419.00;;;;338513;28;96534;-89
2023/06/05 00:59:48;;;;;;;;;;;17.80;99.90;18.00;99415.00;;;;341870;28;83559;-88
2023/06/05 01:00:01;;;;;;;;;;;17.80;99.90;18.00;99418.00;;;;341179;28;98162;-88
2023/06/05 01:00:14;;;;;;;;;;;17.80;99.90;18.00;99413.00;;;;340717;28;83241;-89
2023/06/05 01:00:26;;;;;;;;;;;17.80;99.90;17.90;99415.00;;;;339791;28;96490;-88